aviador You're here:

ZBTJ Decoded Metar

TIANJIN in CHINA
Report Time2017-07-21 08:00:00
UTC Time2017-07-21 08:37:31
Flight Rules mvfr MVFR
Wind050° at 12 kt
W.Decomp.*RWY 34: 2.9 kt HW 11.6 kt RCW
W.Rank050° ranks 27
Current wind is above 050° avg. (6.0)
Visibility5000 m
Phenomena:Mist
Clouds:Broken 011 Hf
Expected CloudBase > 1,200 ft AGL from Temp-Dew spread
Ceiling1,100 ft
Temp23°C (ISA +8)
Dew Point20°C (83% RH)
AAT22.4°C
QNH1008 hPa
Density Alt1,421 ft
Elevation10 ft
Report Wrong Elevation
Raw Report
METAR COR ZBTJ 210800Z 05006MPS 5000 BR BKN011 23/20 Q1008 BECMG
TL0930 BKN015=

Extra information for ZBTJ:More info

Metar Taf Metar & Taf Last 4 Metars F.Rules Stats Wind Profile Meteogram Temp Stats Airport Information Weather charts Add Link Nearby VenuesMetar ALERT Operation Metar Decoded Social comments